createdAt,value
2017-11-17T00:00:35.003Z,8.87
2017-11-17T00:02:02.376Z,8.87
2017-11-17T00:03:29.656Z,8.87
2017-11-17T00:04:57.077Z,8.88
2017-11-17T00:06:24.231Z,8.88
2017-11-17T00:07:51.674Z,8.88
2017-11-17T00:09:19.951Z,8.88
2017-11-17T00:10:47.199Z,8.87
2017-11-17T00:12:13.429Z,8.84
2017-11-17T00:13:41.674Z,8.83
2017-11-17T00:15:07.939Z,8.83
2017-11-17T00:16:35.220Z,8.82
2017-11-17T00:18:02.426Z,8.82
2017-11-17T00:19:29.744Z,8.83
2017-11-17T00:20:57.088Z,8.84
2017-11-17T00:22:24.173Z,8.83
2017-11-17T00:23:51.708Z,8.82
2017-11-17T00:25:19.006Z,8.83
2017-11-17T00:26:46.323Z,8.83
2017-11-17T00:28:13.920Z,8.81
2017-11-17T00:29:42.252Z,8.82
2017-11-17T00:31:08.604Z,8.79
2017-11-17T00:32:35.943Z,8.76
2017-11-17T00:34:03.146Z,8.72
2017-11-17T00:35:30.455Z,8.68
2017-11-17T00:36:57.744Z,8.62
2017-11-17T00:38:25.016Z,8.61
2017-11-17T00:39:53.455Z,8.62
2017-11-17T00:41:20.538Z,8.63
2017-11-17T00:42:47.901Z,8.62
2017-11-17T00:44:14.848Z,8.64
2017-11-17T00:45:41.268Z,8.68
2017-11-17T00:47:08.514Z,8.70
2017-11-17T00:48:35.765Z,8.73
2017-11-17T00:50:04.029Z,8.77
2017-11-17T00:51:30.287Z,8.80
2017-11-17T00:52:57.737Z,8.81
2017-11-17T00:54:25.050Z,8.82
2017-11-17T00:55:52.412Z,8.84
2017-11-17T00:57:19.799Z,8.85
2017-11-17T00:58:46.944Z,8.84
2017-11-17T01:00:15.234Z,8.84
2017-11-17T01:01:41.663Z,8.85
2017-11-17T01:03:08.944Z,8.88
2017-11-17T01:04:36.275Z,8.87
2017-11-17T01:06:03.696Z,8.88
2017-11-17T01:07:31.110Z,8.88
2017-11-17T01:08:58.267Z,8.88
2017-11-17T01:10:26.587Z,8.88
2017-11-17T01:11:52.931Z,8.88
2017-11-17T01:13:20.237Z,8.88
2017-11-17T01:14:47.581Z,8.86
2017-11-17T01:16:16.080Z,8.84
2017-11-17T01:17:43.200Z,8.81
2017-11-17T01:19:09.553Z,8.79
2017-11-17T01:20:36.961Z,8.79
2017-11-17T01:22:05.249Z,8.77
2017-11-17T01:23:31.548Z,8.76
2017-11-17T01:24:59.859Z,8.75
2017-11-17T01:26:26.108Z,8.77
2017-11-17T01:27:53.369Z,8.78
2017-11-17T01:29:20.786Z,8.79
2017-11-17T01:30:49.079Z,8.77
2017-11-17T01:32:15.357Z,8.75
2017-11-17T01:33:42.356Z,8.74
2017-11-17T01:35:09.867Z,8.73
2017-11-17T01:36:37.119Z,8.69
2017-11-17T01:38:04.452Z,8.67
2017-11-17T01:39:31.784Z,8.70
2017-11-17T01:40:58.945Z,8.68
2017-11-17T01:42:26.247Z,8.67
2017-11-17T01:43:54.363Z,8.65
2017-11-17T01:45:20.777Z,8.65
2017-11-17T01:46:48.029Z,8.68
2017-11-17T01:48:15.226Z,8.69
2017-11-17T01:49:42.623Z,8.72
2017-11-17T01:51:10.940Z,8.73
2017-11-17T01:52:38.332Z,8.73
2017-11-17T01:54:04.432Z,8.70
2017-11-17T01:55:32.929Z,8.64
2017-11-17T01:56:59.121Z,8.62
2017-11-17T01:58:26.457Z,8.60
2017-11-17T01:59:54.351Z,8.60
2017-11-17T02:01:20.614Z,8.61
2017-11-17T02:02:49.030Z,8.63
2017-11-17T02:04:15.316Z,8.60
2017-11-17T02:05:43.589Z,8.61
2017-11-17T02:07:09.990Z,8.60
2017-11-17T02:08:37.406Z,8.56
2017-11-17T02:10:05.845Z,8.53
2017-11-17T02:11:32.006Z,8.51
2017-11-17T02:12:59.295Z,8.50
2017-11-17T02:14:27.542Z,8.48
2017-11-17T02:15:53.648Z,8.46
2017-11-17T02:17:20.975Z,8.46
2017-11-17T02:18:49.309Z,8.46
2017-11-17T02:20:15.759Z,8.41
2017-11-17T02:21:44.206Z,8.40
2017-11-17T02:23:11.565Z,8.37
2017-11-17T02:24:37.955Z,8.34
2017-11-17T02:26:05.405Z,8.32
2017-11-17T02:27:32.677Z,8.29
2017-11-17T02:29:00.126Z,8.23
2017-11-17T02:30:27.250Z,8.21
2017-11-17T02:31:55.468Z,8.21
2017-11-17T02:33:22.792Z,8.17
2017-11-17T02:34:49.163Z,8.15
2017-11-17T02:36:16.558Z,8.17
2017-11-17T02:37:43.724Z,8.17
2017-11-17T02:39:11.158Z,8.13
2017-11-17T02:40:38.220Z,8.08
2017-11-17T02:42:05.531Z,8.06
2017-11-17T02:43:32.979Z,8.07
2017-11-17T02:45:00.165Z,8.06
2017-11-17T02:46:27.317Z,8.03
2017-11-17T02:47:55.474Z,7.99
2017-11-17T02:49:21.924Z,7.99
2017-11-17T02:50:49.233Z,7.99
2017-11-17T02:52:16.515Z,7.97
2017-11-17T02:53:44.881Z,7.92
2017-11-17T02:55:11.202Z,7.91
2017-11-17T02:56:38.576Z,7.90
2017-11-17T02:58:06.874Z,7.89
2017-11-17T02:59:33.100Z,7.89
2017-11-17T03:01:00.374Z,7.90
2017-11-17T03:02:28.876Z,7.88
2017-11-17T03:03:56.050Z,7.83
2017-11-17T03:05:22.316Z,7.81
2017-11-17T03:06:49.528Z,7.78
2017-11-17T03:08:17.879Z,7.78
2017-11-17T03:09:43.989Z,7.79
2017-11-17T03:11:11.255Z,7.79
2017-11-17T03:12:38.647Z,7.79
2017-11-17T03:14:06.076Z,7.79
2017-11-17T03:15:33.231Z,7.71
2017-11-17T03:17:00.405Z,7.68
2017-11-17T03:18:28.843Z,7.65
2017-11-17T03:19:55.078Z,7.63
2017-11-17T03:21:22.289Z,7.62
2017-11-17T03:22:49.505Z,7.59
2017-11-17T03:24:16.976Z,7.56
2017-11-17T03:25:44.309Z,7.51
2017-11-17T03:27:11.556Z,7.44
2017-11-17T03:28:38.821Z,7.40
2017-11-17T03:30:07.094Z,7.38
2017-11-17T03:31:33.337Z,7.36
2017-11-17T03:33:01.507Z,7.32
2017-11-17T03:34:28.828Z,7.32
2017-11-17T03:35:55.895Z,7.29
2017-11-17T03:37:21.959Z,7.30
2017-11-17T03:38:50.249Z,7.24
2017-11-17T03:40:17.567Z,7.20
2017-11-17T03:41:44.884Z,7.17
2017-11-17T03:43:11.290Z,7.15
2017-11-17T03:44:38.636Z,7.19
2017-11-17T03:46:06.937Z,7.22
2017-11-17T03:47:33.057Z,7.24
2017-11-17T03:49:00.392Z,7.22
2017-11-17T03:50:28.697Z,7.12
2017-11-17T03:51:54.800Z,7.04
2017-11-17T03:53:22.104Z,7.01
2017-11-17T03:54:49.402Z,7.00
2017-11-17T03:56:17.758Z,7.05
2017-11-17T03:57:43.792Z,7.04
2017-11-17T03:59:11.054Z,7.00
2017-11-17T04:00:38.221Z,7.01
2017-11-17T04:02:05.516Z,7.05
2017-11-17T04:03:33.841Z,7.07
2017-11-17T04:05:01.225Z,7.08
2017-11-17T04:06:27.388Z,7.07
2017-11-17T04:07:55.685Z,7.06
2017-11-17T04:09:21.935Z,7.06
2017-11-17T04:10:49.345Z,7.05
2017-11-17T04:12:17.619Z,7.02
2017-11-17T04:13:44.908Z,6.99
2017-11-17T04:15:11.184Z,6.99
2017-11-17T04:16:38.521Z,6.99
2017-11-17T04:18:05.763Z,7.00
2017-11-17T04:19:33.086Z,7.01
2017-11-17T04:21:01.429Z,7.02
2017-11-17T04:22:28.633Z,7.01
2017-11-17T04:23:55.605Z,7.01
2017-11-17T04:25:21.972Z,6.97
2017-11-17T04:26:49.344Z,6.92
2017-11-17T04:28:17.741Z,6.86
2017-11-17T04:29:44.183Z,6.84
2017-11-17T04:31:11.536Z,6.80
2017-11-17T04:32:38.656Z,6.80
2017-11-17T04:34:05.900Z,6.81
2017-11-17T04:35:33.001Z,6.81
2017-11-17T04:37:00.230Z,6.80
2017-11-17T04:38:27.433Z,6.75
2017-11-17T04:39:54.553Z,6.73
2017-11-17T04:41:21.968Z,6.74
2017-11-17T04:42:50.307Z,6.77
2017-11-17T04:44:16.499Z,6.76
2017-11-17T04:45:43.909Z,6.68
2017-11-17T04:47:12.171Z,6.60
2017-11-17T04:48:39.523Z,6.52
2017-11-17T04:50:05.761Z,6.49
2017-11-17T04:51:32.943Z,6.47
2017-11-17T04:53:00.189Z,6.44
2017-11-17T04:54:27.368Z,6.46
2017-11-17T04:55:54.506Z,6.47
2017-11-17T04:57:21.797Z,6.47
2017-11-17T04:58:48.952Z,6.51
2017-11-17T05:00:16.182Z,6.53
2017-11-17T05:01:44.487Z,6.47
2017-11-17T05:03:11.061Z,6.48
2017-11-17T05:04:38.184Z,6.49
2017-11-17T05:06:05.498Z,6.43
2017-11-17T05:07:32.750Z,6.34
2017-11-17T05:09:00.117Z,6.27
2017-11-17T05:10:28.384Z,6.21
2017-11-17T05:11:54.569Z,6.21
2017-11-17T05:13:21.643Z,6.21
2017-11-17T05:14:49.841Z,6.20
2017-11-17T05:16:16.186Z,6.13
2017-11-17T05:17:43.417Z,6.06
2017-11-17T05:19:10.836Z,6.00
2017-11-17T05:20:38.218Z,5.97
2017-11-17T05:22:05.646Z,5.93
2017-11-17T05:23:32.781Z,5.90
2017-11-17T05:24:59.904Z,5.89
2017-11-17T05:26:27.294Z,5.87
2017-11-17T05:27:55.777Z,5.82
2017-11-17T05:29:22.001Z,5.82
2017-11-17T05:30:49.420Z,5.81
2017-11-17T05:32:16.468Z,5.76
2017-11-17T05:33:43.913Z,5.72
2017-11-17T05:35:11.300Z,5.71
2017-11-17T05:36:39.582Z,5.71
2017-11-17T05:38:05.876Z,5.68
2017-11-17T05:39:33.231Z,5.67
2017-11-17T05:41:00.350Z,5.68
2017-11-17T05:42:27.550Z,5.66
2017-11-17T05:43:54.702Z,5.64
2017-11-17T05:45:22.135Z,5.62
2017-11-17T05:46:49.426Z,5.63
2017-11-17T05:48:16.816Z,5.60
2017-11-17T05:49:44.158Z,5.58
2017-11-17T05:51:12.261Z,5.53
2017-11-17T05:52:39.628Z,5.49
2017-11-17T05:54:05.792Z,5.48
2017-11-17T05:55:32.953Z,5.49
2017-11-17T05:57:00.105Z,5.49
2017-11-17T05:58:28.268Z,5.47
2017-11-17T05:59:54.418Z,5.42
2017-11-17T06:01:21.771Z,5.38
2017-11-17T06:02:49.183Z,5.34
2017-11-17T06:04:16.327Z,5.32
2017-11-17T06:05:43.385Z,5.35
2017-11-17T06:07:10.535Z,5.33
2017-11-17T06:08:37.847Z,5.36
2017-11-17T06:10:05.027Z,5.37
2017-11-17T06:11:32.385Z,5.46
2017-11-17T06:12:59.532Z,5.50
2017-11-17T06:14:26.810Z,5.59
2017-11-17T06:15:53.926Z,5.63
2017-11-17T06:17:21.309Z,5.69
2017-11-17T06:18:48.607Z,5.74
2017-11-17T06:20:16.012Z,5.74
2017-11-17T06:21:43.246Z,5.77
2017-11-17T06:23:10.482Z,5.70
2017-11-17T06:24:38.669Z,5.61
2017-11-17T06:26:06.089Z,5.65
2017-11-17T06:27:32.327Z,5.65
2017-11-17T06:28:59.533Z,5.70
2017-11-17T06:30:27.643Z,5.72
2017-11-17T06:31:53.790Z,5.67
2017-11-17T06:33:21.035Z,5.62
2017-11-17T06:34:48.480Z,5.57
2017-11-17T06:36:15.638Z,5.60
2017-11-17T06:37:42.603Z,5.57
2017-11-17T06:39:10.824Z,5.63
2017-11-17T06:40:38.074Z,5.70
2017-11-17T06:42:04.293Z,5.76
2017-11-17T06:43:31.517Z,5.72
2017-11-17T06:44:59.738Z,5.76
2017-11-17T06:46:29.123Z,5.76
2017-11-17T06:47:53.242Z,5.66
2017-11-17T06:49:20.571Z,5.63
2017-11-17T06:50:47.866Z,5.58
2017-11-17T06:52:16.250Z,5.54
2017-11-17T06:53:43.575Z,5.53
2017-11-17T06:55:09.837Z,5.49
2017-11-17T06:56:37.075Z,5.49
2017-11-17T06:58:04.419Z,5.49
2017-11-17T06:59:32.678Z,5.57
2017-11-17T07:00:58.877Z,5.60
2017-11-17T07:02:27.221Z,5.59
2017-11-17T07:03:54.253Z,5.58
2017-11-17T07:05:20.598Z,5.55
2017-11-17T07:06:48.973Z,5.51
2017-11-17T07:08:14.986Z,5.50
2017-11-17T07:09:42.369Z,5.49
2017-11-17T07:11:09.505Z,5.46
2017-11-17T07:12:36.723Z,5.48
2017-11-17T07:14:03.898Z,5.48
2017-11-17T07:15:32.114Z,5.47
2017-11-17T07:16:59.293Z,5.50
2017-11-17T07:18:26.463Z,5.54
2017-11-17T07:19:53.604Z,5.53
2017-11-17T07:21:19.828Z,5.55
2017-11-17T07:22:47.994Z,5.57
2017-11-17T07:24:14.342Z,5.55
2017-11-17T07:25:41.569Z,5.55
2017-11-17T07:27:08.801Z,5.51
2017-11-17T07:28:37.124Z,5.48
2017-11-17T07:30:04.279Z,5.47
2017-11-17T07:31:31.488Z,5.46
2017-11-17T07:32:57.635Z,5.47
2017-11-17T07:34:24.881Z,5.54
2017-11-17T07:35:53.047Z,5.61
2017-11-17T07:37:19.402Z,5.63
2017-11-17T07:38:46.746Z,5.65
2017-11-17T07:40:14.040Z,5.69
2017-11-17T07:41:42.393Z,5.74
2017-11-17T07:43:08.608Z,5.80
2017-11-17T07:44:36.994Z,5.86
2017-11-17T07:46:03.889Z,5.91
2017-11-17T07:47:30.217Z,5.96
2017-11-17T07:48:57.350Z,6.01
2017-11-17T07:50:24.524Z,6.07
2017-11-17T07:51:51.893Z,6.11
2017-11-17T07:53:19.126Z,6.14
2017-11-17T07:54:46.331Z,6.16
2017-11-17T07:56:13.719Z,6.18
2017-11-17T07:57:41.050Z,6.18
2017-11-17T07:59:08.136Z,6.19
2017-11-17T08:00:35.404Z,6.21
2017-11-17T08:02:02.450Z,6.24
2017-11-17T08:03:30.741Z,6.26
2017-11-17T08:04:56.989Z,6.29
2017-11-17T08:06:24.954Z,6.30
2017-11-17T08:07:52.329Z,6.30
2017-11-17T08:09:18.568Z,6.31
2017-11-17T08:10:47.119Z,6.32
2017-11-17T08:12:13.239Z,6.31
2017-11-17T08:13:41.329Z,6.33
2017-11-17T08:15:08.689Z,6.35
2017-11-17T08:16:34.916Z,6.37
2017-11-17T08:18:03.004Z,6.39
2017-11-17T08:19:30.172Z,6.39
2017-11-17T08:20:56.393Z,6.39
2017-11-17T08:22:23.763Z,6.42
2017-11-17T08:23:52.077Z,6.44
2017-11-17T08:25:18.474Z,6.46
2017-11-17T08:26:46.605Z,6.49
2017-11-17T08:28:12.862Z,6.51
2017-11-17T08:29:40.051Z,6.53
2017-11-17T08:31:07.479Z,6.55
2017-11-17T08:32:34.585Z,6.57
2017-11-17T08:34:03.026Z,6.59
2017-11-17T08:35:30.083Z,6.61
2017-11-17T08:36:57.241Z,6.64
2017-11-17T08:38:23.812Z,6.61
2017-11-17T08:39:51.058Z,6.63
2017-11-17T08:41:18.304Z,6.65
2017-11-17T08:42:45.696Z,6.65
2017-11-17T08:44:13.009Z,6.66
2017-11-17T08:45:41.697Z,6.68
2017-11-17T08:47:07.685Z,6.72
2017-11-17T08:48:34.923Z,6.74
2017-11-17T08:50:02.121Z,6.75
2017-11-17T08:51:30.479Z,6.77
2017-11-17T08:52:56.679Z,6.79
2017-11-17T08:54:23.900Z,6.82
2017-11-17T08:55:51.045Z,6.80
2017-11-17T08:57:19.304Z,6.77
2017-11-17T09:00:12.906Z,6.78
2017-11-17T09:01:40.256Z,6.72
2017-11-17T09:03:07.507Z,6.74
2017-11-17T09:04:34.717Z,6.77
2017-11-17T09:06:02.891Z,6.79
2017-11-17T09:07:30.311Z,6.81
2017-11-17T09:08:57.707Z,6.84
2017-11-17T09:10:23.820Z,6.85
2017-11-17T09:11:51.123Z,6.86
2017-11-17T09:13:19.528Z,6.87
2017-11-17T09:14:45.583Z,6.91
2017-11-17T09:16:12.970Z,6.92
2017-11-17T09:17:41.325Z,6.88
2017-11-17T09:19:08.602Z,6.89
2017-11-17T09:20:35.925Z,6.93
2017-11-17T09:22:03.283Z,6.96
2017-11-17T09:23:29.571Z,6.96
2017-11-17T09:24:56.749Z,6.95
2017-11-17T09:26:23.799Z,6.94
2017-11-17T09:27:52.157Z,6.92
2017-11-17T09:29:19.500Z,6.94
2017-11-17T09:30:45.727Z,6.93
2017-11-17T09:32:13.124Z,6.94
2017-11-17T09:33:41.404Z,6.96
2017-11-17T09:35:08.680Z,7.02
2017-11-17T09:36:35.003Z,7.06
2017-11-17T09:38:02.298Z,7.09
2017-11-17T09:39:29.469Z,7.11
2017-11-17T09:40:56.771Z,7.10
2017-11-17T09:42:23.735Z,7.11
2017-11-17T09:43:51.063Z,7.13
2017-11-17T09:45:19.399Z,7.16
2017-11-17T09:46:45.554Z,7.16
2017-11-17T09:48:12.929Z,7.16
2017-11-17T09:49:40.322Z,7.21
2017-11-17T09:51:07.512Z,7.26
2017-11-17T09:52:34.678Z,7.28
2017-11-17T09:54:01.878Z,7.34
2017-11-17T09:55:29.097Z,7.38
2017-11-17T09:56:57.407Z,7.40
2017-11-17T09:58:23.633Z,7.40
2017-11-17T09:59:51.925Z,7.38
2017-11-17T10:01:19.209Z,7.38
2017-11-17T10:02:46.620Z,7.39
2017-11-17T10:04:12.955Z,7.39
2017-11-17T10:05:41.308Z,7.37
2017-11-17T10:07:07.549Z,7.38
2017-11-17T10:08:34.786Z,7.40
2017-11-17T10:10:01.810Z,7.41
2017-11-17T10:11:29.102Z,7.39
2017-11-17T10:12:56.304Z,7.37
2017-11-17T10:14:23.356Z,7.37
2017-11-17T10:15:50.440Z,7.39
2017-11-17T10:17:17.738Z,7.42
2017-11-17T10:18:45.119Z,7.48
2017-11-17T10:20:12.348Z,7.49
2017-11-17T10:21:39.499Z,7.53
2017-11-17T10:23:06.854Z,7.57
2017-11-17T10:24:34.202Z,7.58
2017-11-17T10:26:01.499Z,7.60
2017-11-17T10:27:28.537Z,7.65
2017-11-17T10:28:55.837Z,7.66
2017-11-17T10:30:24.100Z,7.71
2017-11-17T10:31:50.379Z,7.76
2017-11-17T10:33:18.661Z,7.76
2017-11-17T10:34:44.842Z,7.79
2017-11-17T10:36:12.109Z,7.85
2017-11-17T10:37:39.356Z,7.87
2017-11-17T10:39:06.609Z,7.88
2017-11-17T10:40:33.776Z,7.94
2017-11-17T10:42:01.122Z,7.98
2017-11-17T10:43:28.482Z,8.03
2017-11-17T10:44:56.856Z,8.06
2017-11-17T10:46:22.963Z,8.11
2017-11-17T10:47:50.173Z,8.15
2017-11-17T10:49:17.440Z,8.21
2017-11-17T10:50:44.761Z,8.25
2017-11-17T10:52:12.236Z,8.29
2017-11-17T10:53:40.485Z,8.34
2017-11-17T10:55:07.991Z,8.40
2017-11-17T10:56:35.298Z,8.43
2017-11-17T10:58:01.412Z,8.46
2017-11-17T10:59:29.861Z,8.49
2017-11-17T11:00:55.966Z,8.49
2017-11-17T11:02:23.302Z,8.51
2017-11-17T11:03:50.644Z,8.53
2017-11-17T11:05:18.010Z,8.58
2017-11-17T11:06:45.150Z,8.59
2017-11-17T11:08:12.243Z,8.62
2017-11-17T11:09:39.646Z,8.61
2017-11-17T11:11:07.897Z,8.61
2017-11-17T11:12:34.079Z,8.64
2017-11-17T11:14:02.631Z,8.68
2017-11-17T11:15:30.047Z,8.69
2017-11-17T11:16:56.204Z,8.75
2017-11-17T11:18:23.442Z,8.80
2017-11-17T11:19:51.688Z,8.87
2017-11-17T11:21:19.200Z,8.90
2017-11-17T11:22:45.540Z,8.93
2017-11-17T11:24:12.823Z,8.91
2017-11-17T11:25:40.211Z,8.90
2017-11-17T11:27:08.601Z,8.93
2017-11-17T11:28:35.726Z,9.03
2017-11-17T11:30:02.104Z,9.10
2017-11-17T11:31:29.387Z,9.12
2017-11-17T11:32:56.685Z,9.15
2017-11-17T11:34:23.850Z,9.16
2017-11-17T11:35:52.283Z,9.20
2017-11-17T11:37:19.727Z,9.26
2017-11-17T11:38:46.165Z,9.27
2017-11-17T11:40:13.622Z,9.30
2017-11-17T11:41:40.971Z,9.33
2017-11-17T11:43:08.536Z,9.38
2017-11-17T11:44:36.749Z,9.35
2017-11-17T11:46:04.203Z,9.36
2017-11-17T11:47:30.501Z,9.44
2017-11-17T11:48:57.723Z,9.44
2017-11-17T11:50:25.016Z,9.47
2017-11-17T11:51:52.370Z,9.54
2017-11-17T11:53:19.722Z,9.58
2017-11-17T11:54:48.002Z,9.60
2017-11-17T11:56:14.326Z,9.66
2017-11-17T11:57:41.714Z,9.69
2017-11-17T11:59:08.987Z,9.74
2017-11-17T12:00:36.233Z,9.79
2017-11-17T12:02:03.566Z,9.87
2017-11-17T12:03:31.930Z,9.88
2017-11-17T12:04:58.002Z,9.89
2017-11-17T12:06:25.332Z,10.02
2017-11-17T12:07:52.522Z,9.99
2017-11-17T12:09:19.935Z,9.94
2017-11-17T12:10:48.444Z,9.94
2017-11-17T12:12:14.659Z,10.00
2017-11-17T12:13:41.988Z,10.09
2017-11-17T12:15:09.096Z,10.13
2017-11-17T12:16:36.321Z,10.23
2017-11-17T12:18:03.878Z,10.32
2017-11-17T12:19:32.237Z,10.52
2017-11-17T12:20:58.558Z,10.58
2017-11-17T12:22:25.673Z,10.53
2017-11-17T12:23:53.163Z,10.54
2017-11-17T12:25:20.370Z,10.58
2017-11-17T12:26:48.855Z,10.75
2017-11-17T12:28:14.965Z,10.91
2017-11-17T12:29:42.205Z,10.97
2017-11-17T12:31:10.625Z,11.02
2017-11-17T12:32:37.110Z,11.01
2017-11-17T12:34:05.349Z,10.93
2017-11-17T12:35:31.597Z,10.91
2017-11-17T12:36:58.884Z,10.82
2017-11-17T12:38:27.274Z,10.82
2017-11-17T12:39:53.461Z,10.94
2017-11-17T12:41:21.821Z,10.86
2017-11-17T12:42:48.187Z,10.93
2017-11-17T12:44:16.651Z,11.13
2017-11-17T12:45:42.810Z,11.14
2017-11-17T12:47:10.161Z,11.07
2017-11-17T12:48:37.522Z,11.11
2017-11-17T12:50:04.770Z,11.15
2017-11-17T12:51:32.306Z,11.14
2017-11-17T12:52:59.747Z,11.08
2017-11-17T12:54:27.056Z,11.02
2017-11-17T12:55:55.335Z,11.14
2017-11-17T12:57:21.664Z,11.13
2017-11-17T12:58:49.120Z,11.20
2017-11-17T13:00:16.445Z,11.13
2017-11-17T13:01:43.901Z,11.12
2017-11-17T13:03:11.061Z,11.11
2017-11-17T13:04:38.402Z,11.12
2017-11-17T13:06:05.850Z,11.13
2017-11-17T13:07:33.242Z,11.07
2017-11-17T13:09:00.416Z,11.06
2017-11-17T13:10:27.859Z,11.17
2017-11-17T13:11:55.197Z,11.32
2017-11-17T13:13:23.650Z,11.28
2017-11-17T13:14:49.992Z,11.24
2017-11-17T13:16:17.198Z,11.24
2017-11-17T13:17:44.616Z,11.25
2017-11-17T13:19:11.971Z,11.36
2017-11-17T13:20:40.409Z,11.38
2017-11-17T13:22:07.675Z,11.47
2017-11-17T13:23:34.062Z,11.38
2017-11-17T13:25:02.480Z,11.32
2017-11-17T13:26:29.830Z,11.25
2017-11-17T13:27:56.203Z,11.22
2017-11-17T13:29:23.569Z,11.06
2017-11-17T13:30:50.909Z,11.02
2017-11-17T13:32:18.336Z,11.02
2017-11-17T13:33:46.632Z,11.13
2017-11-17T13:35:14.196Z,11.20
2017-11-17T13:36:41.457Z,11.09
2017-11-17T13:38:07.850Z,10.94
2017-11-17T13:39:36.257Z,10.83
2017-11-17T13:41:03.638Z,10.82
2017-11-17T13:42:29.860Z,10.80
2017-11-17T13:43:58.161Z,10.84
2017-11-17T13:45:24.329Z,10.77
2017-11-17T13:46:51.601Z,10.67
2017-11-17T13:48:18.855Z,10.54
2017-11-17T13:49:46.298Z,10.48
2017-11-17T13:51:13.674Z,10.44
2017-11-17T13:52:40.994Z,10.41
2017-11-17T13:54:08.004Z,10.40
2017-11-17T13:55:36.272Z,10.42
2017-11-17T13:57:02.766Z,10.35
2017-11-17T13:58:31.027Z,10.37
2017-11-17T13:59:57.325Z,10.37
2017-11-17T14:01:24.684Z,10.21
2017-11-17T14:02:52.990Z,10.16
2017-11-17T14:04:19.502Z,10.07
2017-11-17T14:05:46.852Z,10.01
2017-11-17T14:07:15.313Z,10.02
2017-11-17T14:08:41.692Z,9.89
2017-11-17T14:10:08.883Z,9.81
2017-11-17T14:11:36.080Z,9.73
2017-11-17T14:13:03.568Z,9.76
2017-11-17T14:14:31.718Z,9.76
2017-11-17T14:15:57.800Z,9.76
2017-11-17T14:17:25.044Z,9.80
2017-11-17T14:18:52.479Z,9.84
2017-11-17T14:20:19.775Z,9.88
2017-11-17T14:21:47.072Z,9.90
2017-11-17T14:23:14.390Z,9.89
2017-11-17T14:24:41.722Z,9.83
2017-11-17T14:26:09.223Z,9.79
2017-11-17T14:27:36.491Z,9.65
2017-11-17T14:29:03.870Z,9.54
2017-11-17T14:30:31.142Z,9.48
2017-11-17T14:31:59.453Z,9.45
2017-11-17T14:33:26.770Z,9.47
2017-11-17T14:34:53.081Z,9.48
2017-11-17T14:36:21.386Z,9.43
2017-11-17T14:37:48.778Z,9.35
2017-11-17T14:39:15.090Z,9.24
2017-11-17T14:40:42.450Z,9.21
2017-11-17T14:42:09.915Z,9.20
2017-11-17T14:43:37.211Z,9.17
2017-11-17T14:45:05.710Z,9.14
2017-11-17T14:46:32.825Z,9.20
2017-11-17T14:47:59.915Z,9.25
2017-11-17T14:49:26.257Z,9.27
2017-11-17T14:50:54.755Z,9.19
2017-11-17T14:52:21.042Z,9.13
2017-11-17T14:53:48.453Z,9.09
2017-11-17T14:55:16.830Z,9.09
2017-11-17T14:56:43.168Z,9.09
2017-11-17T14:58:10.364Z,9.03
2017-11-17T14:59:37.718Z,9.03
2017-11-17T15:01:05.093Z,9.05
2017-11-17T15:02:32.450Z,9.00
2017-11-17T15:03:59.761Z,9.02
2017-11-17T15:05:26.926Z,9.05
2017-11-17T15:06:54.241Z,9.05
2017-11-17T15:08:24.688Z,9.06
2017-11-17T15:09:48.998Z,9.08
2017-11-17T15:11:16.373Z,9.07
2017-11-17T15:12:43.817Z,9.07
2017-11-17T15:14:11.090Z,9.09
2017-11-17T15:15:38.453Z,9.08
2017-11-17T15:17:05.651Z,9.06
2017-11-17T15:18:34.003Z,8.98
2017-11-17T15:20:00.362Z,8.89
2017-11-17T15:21:27.819Z,8.89
2017-11-17T15:22:56.260Z,8.88
2017-11-17T15:24:23.522Z,8.85
2017-11-17T15:25:50.835Z,8.82
2017-11-17T15:27:18.060Z,8.75
2017-11-17T15:28:45.322Z,8.75
2017-11-17T15:30:11.668Z,8.78
2017-11-17T15:31:38.882Z,8.81
2017-11-17T15:33:06.213Z,8.83
2017-11-17T15:34:33.661Z,8.84
2017-11-17T15:36:01.193Z,8.85
2017-11-17T15:37:28.396Z,8.86
2017-11-17T15:38:55.414Z,8.86
2017-11-17T15:40:22.879Z,8.85
2017-11-17T15:41:51.214Z,8.81
2017-11-17T15:43:17.464Z,8.79
2017-11-17T15:44:45.851Z,8.79
2017-11-17T15:46:12.143Z,8.79
2017-11-17T15:47:39.683Z,8.77
2017-11-17T15:49:06.791Z,8.68
2017-11-17T15:50:34.022Z,8.67
2017-11-17T15:52:01.269Z,8.68
2017-11-17T15:53:29.463Z,8.68
2017-11-17T15:54:55.880Z,8.68
2017-11-17T15:56:23.034Z,8.68
2017-11-17T15:57:50.407Z,8.65
2017-11-17T15:59:17.891Z,8.64
2017-11-17T16:00:44.972Z,8.63
2017-11-17T16:02:12.249Z,8.60
2017-11-17T16:03:40.665Z,8.57
2017-11-17T16:05:06.519Z,8.53
2017-11-17T16:06:34.872Z,8.52
2017-11-17T16:08:01.326Z,8.50
2017-11-17T16:09:29.555Z,8.48
2017-11-17T16:10:55.673Z,8.46
2017-11-17T16:12:23.070Z,8.44
2017-11-17T16:13:50.197Z,8.39
2017-11-17T16:15:17.516Z,8.38
2017-11-17T16:16:44.827Z,8.39
2017-11-17T16:18:13.093Z,8.37
2017-11-17T16:19:40.386Z,8.35
2017-11-17T16:21:06.744Z,8.34
2017-11-17T16:22:35.016Z,8.33
2017-11-17T16:24:01.257Z,8.31
2017-11-17T16:25:28.631Z,8.31
2017-11-17T16:26:55.865Z,8.29
2017-11-17T16:28:23.020Z,8.28
2017-11-17T16:29:50.230Z,8.28
2017-11-17T16:31:18.743Z,8.28
2017-11-17T16:32:45.080Z,8.29
2017-11-17T16:34:13.516Z,8.28
2017-11-17T16:35:39.514Z,8.29
2017-11-17T16:37:06.905Z,8.29
2017-11-17T16:38:34.236Z,8.29
2017-11-17T16:40:02.572Z,8.28
2017-11-17T16:41:28.883Z,8.28
2017-11-17T16:42:56.063Z,8.28
2017-11-17T16:44:23.442Z,8.27
2017-11-17T16:45:50.793Z,8.27
2017-11-17T16:47:19.182Z,8.25
2017-11-17T16:48:46.535Z,8.24
2017-11-17T16:50:19.049Z,8.23
2017-11-17T16:51:40.215Z,8.22
2017-11-17T16:53:08.510Z,8.21
2017-11-17T16:54:34.553Z,8.20
2017-11-17T16:56:01.838Z,8.19
2017-11-17T16:57:28.999Z,8.17
2017-11-17T16:58:56.127Z,8.16
2017-11-17T17:00:23.331Z,8.15
2017-11-17T17:01:50.706Z,8.12
2017-11-17T17:03:17.882Z,8.12
2017-11-17T17:04:45.145Z,8.13
2017-11-17T17:06:13.378Z,8.13
2017-11-17T17:07:39.775Z,8.13
2017-11-17T17:09:06.880Z,8.14
2017-11-17T17:10:34.200Z,8.13
2017-11-17T17:12:01.550Z,8.13
2017-11-17T17:13:29.969Z,8.11
2017-11-17T17:14:56.032Z,8.10
2017-11-17T17:16:23.225Z,8.10
2017-11-17T17:17:50.602Z,8.10
2017-11-17T17:19:17.915Z,8.11
2017-11-17T17:20:45.260Z,8.11
2017-11-17T17:22:13.607Z,8.08
2017-11-17T17:23:40.972Z,8.08
2017-11-17T17:25:07.212Z,8.08
2017-11-17T17:26:34.471Z,8.06
2017-11-17T17:28:01.759Z,8.05
2017-11-17T17:29:29.005Z,8.04
2017-11-17T17:30:56.248Z,8.03
2017-11-17T17:32:24.665Z,8.02
2017-11-17T17:33:51.054Z,8.01
2017-11-17T17:35:19.363Z,7.94
2017-11-17T17:36:45.629Z,7.94
2017-11-17T17:38:13.125Z,7.93
2017-11-17T17:39:41.109Z,7.92
2017-11-17T17:41:07.550Z,7.92
2017-11-17T17:42:35.749Z,7.91
2017-11-17T17:44:03.089Z,7.89
2017-11-17T17:45:30.349Z,7.87
2017-11-17T17:46:56.707Z,7.87
2017-11-17T17:48:24.942Z,7.85
2017-11-17T17:49:51.298Z,7.84
2017-11-17T17:51:19.577Z,7.81
2017-11-17T17:52:45.485Z,7.79
2017-11-17T17:54:13.682Z,7.80
2017-11-17T17:55:39.976Z,7.80
2017-11-17T17:57:07.276Z,7.77
2017-11-17T17:58:34.568Z,7.74
2017-11-17T18:00:01.736Z,7.74
2017-11-17T18:01:29.849Z,7.74
2017-11-17T18:02:56.170Z,7.73
2017-11-17T18:04:23.513Z,7.73
2017-11-17T18:05:52.019Z,7.73
2017-11-17T18:07:18.496Z,7.72
2017-11-17T18:08:45.556Z,7.72
2017-11-17T18:10:13.053Z,7.71
2017-11-17T18:11:40.367Z,7.68
2017-11-17T18:13:07.745Z,7.68
2017-11-17T18:14:34.962Z,7.66
2017-11-17T18:16:03.175Z,7.58
2017-11-17T18:17:30.214Z,7.54
2017-11-17T18:18:56.545Z,7.55
2017-11-17T18:20:25.007Z,7.53
2017-11-17T18:21:52.537Z,7.46
2017-11-17T18:23:18.803Z,7.46
2017-11-17T18:24:46.148Z,7.43
2017-11-17T18:26:13.500Z,7.44
2017-11-17T18:27:41.796Z,7.47
2017-11-17T18:29:08.160Z,7.49
2017-11-17T18:30:36.423Z,7.50
2017-11-17T18:32:02.737Z,7.49
2017-11-17T18:33:31.079Z,7.50
2017-11-17T18:34:57.340Z,7.50
2017-11-17T18:36:25.450Z,7.51
2017-11-17T18:37:51.800Z,7.52
2017-11-17T18:39:19.101Z,7.51
2017-11-17T18:40:47.661Z,7.52
2017-11-17T18:42:15.128Z,7.53
2017-11-17T18:43:41.263Z,7.55
2017-11-17T18:45:09.623Z,7.56
2017-11-17T18:46:35.930Z,7.57
2017-11-17T18:48:03.054Z,7.57
2017-11-17T18:49:30.430Z,7.58
2017-11-17T18:50:57.762Z,7.53
2017-11-17T18:52:26.016Z,7.52
2017-11-17T18:53:53.151Z,7.52
2017-11-17T18:55:19.592Z,7.53
2017-11-17T18:56:47.626Z,7.52
2017-11-17T18:58:14.992Z,7.53
2017-11-17T18:59:41.453Z,7.53
2017-11-17T19:01:08.813Z,7.52
2017-11-17T19:02:36.941Z,7.50
2017-11-17T19:04:03.138Z,7.46
2017-11-17T19:05:30.475Z,7.44
2017-11-17T19:06:57.723Z,7.44
2017-11-17T19:08:24.918Z,7.47
2017-11-17T19:09:52.247Z,7.50
2017-11-17T19:11:20.534Z,7.53
2017-11-17T19:12:46.617Z,7.55
2017-11-17T19:14:14.877Z,7.55
2017-11-17T19:15:41.218Z,7.50
2017-11-17T19:17:08.453Z,7.48
2017-11-17T19:18:35.784Z,7.50